Aeroporto :
LOGIN :

Iscrizione | Disclaimer

   EN    FR    IT 

 










Sommario :    VFR   VFR Marginale   IFR   IFR Intensivo   IFR Molto Intensivo
Visibilità : 
Base nubi : 
>= 8 km
>= 3000ft
5 / 8 km
1000 / 3000 ft
1500m / 5 km
500 / 1000 ft
800 / 1500m
200 / 500 ft
< 800m
< 200 ft
Simboli :   Temporali  Nebbia  Neve Forte  Precipitazioni Forti  Vento > 20 kt
SIGMETs :   Varie  Temporali  Ghiacco  Turbolenza  Onda orograficha  Ceneri Vulcaniche






- Altitudine del aeroporto : 82 ft
- Codice IATA : AAR


EKAH - Aarhus Tirstrup

ULTIMO METAR :
  • 081120Z AUTO 21007KT 160V260 9999NDV NCD 14/06 Q1026

METARs OBSOLETI :
  • 081050Z AUTO 22007KT 160V260 9999NDV NCD 14/05 Q1026
  • 081020Z AUTO 18007KT 090V250 9999NDV NCD 13/05 Q1027
  • 080950Z AUTO 21005G15KT 130V260 9999NDV NCD 13/05 Q1027
  • 080920Z AUTO 21005KT 130V250 9999NDV NCD 13/05 Q1028
  • 080850Z AUTO 21008KT 170V270 9999NDV NCD 13/04 Q1028

Previsioni scadute.



MetMap, La meteo Aeronautica in un colpo d'occhio ! - Copyright ORBIFLY Dicembre 2007 - Disclaimer

ORBIFLY MET'MAP TEAM :

Programmazione e sviluppo : Alexandra Zaïnal
Concezione : Baudouin d'Aumeries
Aiuto per la programmazione : Marc-Olivier Méhu
Supporto tecnico e logistico : Manuel Goepfert
Aiuto per la traduzione : Arnaldo La Scala

Contatto : metmap@orbifly.com




FONTI E CREDITI :

   NOAA